Lintong, China
Current Conditions -  °F | °C
As of 7:00 AM on Sunday 21 Dec 2014 (Local Time) from ZLXY Reporting Station
Clear Clear  
Wind Chill: 18°   Ceiling: Unl
Heat Index: 18°   Visibility: 6mi
Dew Point:   Wind: 2mph
Humidity: 53%   Direction: NA
Pressure: 30.68"   Gusts: NA
Location:  34.37°N, 109.2°E
Report Text: ZLXY 202300Z VRB01MPS CAVOK M08/M16 Q1039 NOSIG
Loading
Personal Weather Stations






























Interactive Weather Map New forecast layout! Learn more

10-Day Weather Forecast

Advertisements
Track Severe Weather on mobile